createdAt,value
2022-09-12T00:00:19.169Z,34.32
2022-09-12T00:00:49.245Z,34.41
2022-09-12T00:01:19.284Z,34.37
2022-09-12T00:01:49.380Z,34.37
2022-09-12T00:02:19.471Z,34.38
2022-09-12T00:02:49.492Z,34.38
2022-09-12T00:03:19.522Z,34.37
2022-09-12T00:03:49.552Z,34.37
2022-09-12T00:04:19.584Z,34.32
2022-09-12T00:04:49.614Z,34.37
2022-09-12T00:05:19.635Z,34.39
2022-09-12T00:05:49.672Z,34.37
2022-09-12T00:06:22.841Z,34.32
2022-09-12T00:06:49.805Z,34.34
2022-09-12T00:07:19.844Z,34.30
2022-09-12T00:07:49.875Z,34.35
2022-09-12T00:08:19.905Z,34.37
2022-09-12T00:08:50.024Z,34.32
2022-09-12T00:09:20.141Z,34.30
2022-09-12T00:09:50.138Z,34.38
2022-09-12T00:10:20.132Z,34.32
2022-09-12T00:10:50.129Z,34.22
2022-09-12T00:11:20.121Z,34.37
2022-09-12T00:11:50.263Z,34.37
2022-09-12T00:12:20.244Z,34.30
2022-09-12T00:12:50.248Z,34.30
2022-09-12T00:13:20.235Z,34.33
2022-09-12T00:13:50.358Z,34.35
2022-09-12T00:14:20.347Z,34.29
2022-09-12T00:14:50.463Z,34.33
2022-09-12T00:15:20.457Z,34.33
2022-09-12T00:15:50.454Z,34.33
2022-09-12T00:16:20.636Z,34.37
2022-09-12T00:16:50.647Z,34.38
2022-09-12T00:17:20.623Z,34.35
2022-09-12T00:17:50.743Z,34.32
2022-09-12T00:18:20.734Z,34.27
2022-09-12T00:18:50.773Z,34.33
2022-09-12T00:19:20.798Z,34.32
2022-09-12T00:19:50.827Z,34.30
2022-09-12T00:20:20.858Z,34.32
2022-09-12T00:20:50.896Z,34.27
2022-09-12T00:21:20.924Z,34.33
2022-09-12T00:21:50.959Z,34.29
2022-09-12T00:22:20.989Z,34.33
2022-09-12T00:22:51.032Z,34.27
2022-09-12T00:23:21.067Z,34.29
2022-09-12T00:23:51.097Z,34.36
2022-09-12T00:24:21.130Z,34.33
2022-09-12T00:24:51.156Z,34.30
2022-09-12T00:25:21.193Z,34.33
2022-09-12T00:25:51.225Z,34.32
2022-09-12T00:26:21.259Z,34.30
2022-09-12T00:26:51.291Z,34.28
2022-09-12T00:27:21.344Z,34.28
2022-09-12T00:27:51.356Z,34.33
2022-09-12T00:28:21.392Z,34.32
2022-09-12T00:28:51.423Z,34.33
2022-09-12T00:29:21.447Z,34.32
2022-09-12T00:29:51.482Z,34.26
2022-09-12T00:30:21.511Z,34.29
2022-09-12T00:30:51.557Z,34.26
2022-09-12T00:31:21.630Z,34.35
2022-09-12T00:31:51.699Z,34.27
2022-09-12T00:32:21.703Z,34.27
2022-09-12T00:32:51.748Z,34.30
2022-09-12T00:33:21.790Z,34.33
2022-09-12T00:33:51.817Z,34.30
2022-09-12T00:34:21.861Z,34.30
2022-09-12T00:34:51.897Z,34.25
2022-09-12T00:35:21.924Z,34.28
2022-09-12T00:35:51.954Z,34.29
2022-09-12T00:36:21.988Z,34.24
2022-09-12T00:36:52.020Z,34.22
2022-09-12T00:37:22.047Z,34.25
2022-09-12T00:37:52.083Z,34.24
2022-09-12T00:38:22.119Z,34.28
2022-09-12T00:38:52.151Z,34.28
2022-09-12T00:39:22.183Z,34.30
2022-09-12T00:39:52.266Z,34.28
2022-09-12T00:40:22.256Z,34.32
2022-09-12T00:40:52.297Z,34.25
2022-09-12T00:41:22.330Z,34.32
2022-09-12T00:41:52.360Z,34.24
2022-09-12T00:42:22.396Z,34.25
2022-09-12T00:42:52.455Z,34.30
2022-09-12T00:43:22.459Z,34.21
2022-09-12T00:43:52.491Z,34.25
2022-09-12T00:44:22.523Z,34.25
2022-09-12T00:44:52.552Z,34.27
2022-09-12T00:45:22.658Z,34.24
2022-09-12T00:45:52.692Z,34.25
2022-09-12T00:46:22.710Z,34.21
2022-09-12T00:46:52.745Z,34.22
2022-09-12T00:47:22.786Z,34.24
2022-09-12T00:47:52.816Z,34.28
2022-09-12T00:48:22.849Z,34.27
2022-09-12T00:48:52.882Z,34.25
2022-09-12T00:49:22.911Z,34.27
2022-09-12T00:49:52.952Z,34.25
2022-09-12T00:50:22.985Z,34.27
2022-09-12T00:50:53.012Z,34.22
2022-09-12T00:51:23.044Z,34.27
2022-09-12T00:51:53.078Z,34.28
2022-09-12T00:52:23.107Z,34.20
2022-09-12T00:52:53.140Z,34.22
2022-09-12T00:53:23.173Z,34.22
2022-09-12T00:53:53.202Z,34.22
2022-09-12T00:54:23.232Z,34.19
2022-09-12T00:54:53.269Z,34.19
2022-09-12T00:55:23.299Z,34.25
2022-09-12T00:55:53.330Z,34.24
2022-09-12T00:56:23.366Z,34.24
2022-09-12T00:56:53.395Z,34.22
2022-09-12T00:57:23.428Z,34.18
2022-09-12T00:57:53.463Z,34.22
2022-09-12T00:58:23.521Z,34.21
2022-09-12T00:58:53.529Z,34.19
2022-09-12T00:59:23.562Z,34.21
2022-09-12T00:59:53.591Z,34.24
2022-09-12T01:00:23.622Z,34.24
2022-09-12T01:00:53.756Z,34.22
2022-09-12T01:01:23.829Z,34.22
2022-09-12T01:01:53.869Z,34.16
2022-09-12T01:02:23.849Z,34.18
2022-09-12T01:02:53.868Z,34.19
2022-09-12T01:03:23.896Z,34.22
2022-09-12T01:03:53.929Z,34.18
2022-09-12T01:04:23.959Z,34.18
2022-09-12T01:04:53.986Z,34.19
2022-09-12T01:05:24.019Z,34.24
2022-09-12T01:05:54.051Z,34.20
2022-09-12T01:06:24.080Z,34.27
2022-09-12T01:06:54.113Z,34.20
2022-09-12T01:07:24.164Z,34.19
2022-09-12T01:07:54.195Z,34.19
2022-09-12T01:08:24.221Z,34.23
2022-09-12T01:08:54.341Z,34.20
2022-09-12T01:09:24.456Z,34.20
2022-09-12T01:09:54.453Z,34.17
2022-09-12T01:10:24.572Z,34.25
2022-09-12T01:10:54.692Z,34.22
2022-09-12T01:11:24.809Z,34.19
2022-09-12T01:11:54.926Z,34.20
2022-09-12T01:12:24.934Z,34.14
2022-09-12T01:12:54.925Z,34.16
2022-09-12T01:13:24.921Z,34.20
2022-09-12T01:13:55.059Z,34.19
2022-09-12T01:14:25.153Z,34.25
2022-09-12T01:14:55.150Z,34.17
2022-09-12T01:15:25.265Z,34.23
2022-09-12T01:15:55.383Z,34.16
2022-09-12T01:16:25.397Z,34.26
2022-09-12T01:16:55.495Z,34.17
2022-09-12T01:17:25.502Z,34.13
2022-09-12T01:17:55.490Z,34.20
2022-09-12T01:18:25.496Z,34.13
2022-09-12T01:18:55.520Z,34.17
2022-09-12T01:19:25.562Z,34.17
2022-09-12T01:19:55.587Z,34.17
2022-09-12T01:20:25.625Z,34.20
2022-09-12T01:20:55.659Z,34.19
2022-09-12T01:21:25.686Z,34.17
2022-09-12T01:21:55.720Z,34.17
2022-09-12T01:22:25.757Z,34.17
2022-09-12T01:22:55.793Z,34.17
2022-09-12T01:23:25.824Z,34.12
2022-09-12T01:23:55.868Z,34.14
2022-09-12T01:24:25.899Z,34.17
2022-09-12T01:24:55.935Z,34.22
2022-09-12T01:25:25.968Z,34.13
2022-09-12T01:25:55.998Z,34.19
2022-09-12T01:26:26.027Z,34.19
2022-09-12T01:26:56.060Z,34.17
2022-09-12T01:27:26.094Z,34.16
2022-09-12T01:27:56.130Z,34.14
2022-09-12T01:28:26.152Z,34.14
2022-09-12T01:28:56.181Z,34.14
2022-09-12T01:29:26.265Z,34.17
2022-09-12T01:29:56.278Z,34.23
2022-09-12T01:30:26.324Z,34.17
2022-09-12T01:30:56.349Z,34.09
2022-09-12T01:31:26.389Z,34.16
2022-09-12T01:31:56.471Z,34.13
2022-09-12T01:32:26.541Z,34.13
2022-09-12T01:32:56.554Z,34.14
2022-09-12T01:33:26.586Z,34.17
2022-09-12T01:33:56.614Z,34.13
2022-09-12T01:34:26.640Z,34.11
2022-09-12T01:34:56.671Z,34.16
2022-09-12T01:35:26.701Z,34.13
2022-09-12T01:35:56.738Z,34.15
2022-09-12T01:36:26.761Z,34.14
2022-09-12T01:36:56.795Z,34.12
2022-09-12T01:37:26.838Z,34.16
2022-09-12T01:37:56.871Z,34.09
2022-09-12T01:38:26.898Z,34.11
2022-09-12T01:38:56.931Z,34.14
2022-09-12T01:39:26.958Z,34.14
2022-09-12T01:39:56.994Z,34.09
2022-09-12T01:40:27.024Z,34.20
2022-09-12T01:40:57.057Z,34.17
2022-09-12T01:41:27.090Z,34.12
2022-09-12T01:41:57.133Z,34.15
2022-09-12T01:42:27.167Z,34.17
2022-09-12T01:42:57.199Z,34.17
2022-09-12T01:43:27.232Z,34.12
2022-09-12T01:43:57.258Z,34.16
2022-09-12T01:44:27.293Z,34.12
2022-09-12T01:44:57.352Z,34.14
2022-09-12T01:45:27.397Z,34.14
2022-09-12T01:45:57.446Z,34.11
2022-09-12T01:46:27.452Z,34.11
2022-09-12T01:46:57.479Z,34.07
2022-09-12T01:47:27.511Z,34.12
2022-09-12T01:47:57.552Z,34.11
2022-09-12T01:48:27.580Z,34.06
2022-09-12T01:48:57.612Z,34.11
2022-09-12T01:49:27.648Z,34.08
2022-09-12T01:49:57.677Z,34.14
2022-09-12T01:50:27.711Z,34.17
2022-09-12T01:50:57.745Z,34.12
2022-09-12T01:51:27.775Z,34.09
2022-09-12T01:51:57.806Z,34.14
2022-09-12T01:52:27.847Z,34.06
2022-09-12T01:52:57.877Z,34.09
2022-09-12T01:53:27.909Z,34.11
2022-09-12T01:53:57.940Z,34.10
2022-09-12T01:54:27.973Z,34.09
2022-09-12T01:54:58.009Z,34.07
2022-09-12T01:55:28.038Z,34.07
2022-09-12T01:55:58.076Z,34.09
2022-09-12T01:56:28.104Z,34.09
2022-09-12T01:56:58.135Z,34.07
2022-09-12T01:57:28.167Z,34.09
2022-09-12T01:57:58.202Z,34.10
2022-09-12T01:58:28.233Z,34.12
2022-09-12T01:58:58.263Z,34.09
2022-09-12T01:59:28.299Z,34.09
2022-09-12T01:59:58.330Z,34.14
2022-09-12T02:00:28.383Z,34.14
2022-09-12T02:00:58.437Z,34.06
2022-09-12T02:01:28.528Z,34.09
2022-09-12T02:01:58.675Z,34.07
2022-09-12T02:02:28.643Z,34.08
2022-09-12T02:02:58.595Z,34.04
2022-09-12T02:03:28.625Z,34.11
2022-09-12T02:03:58.687Z,34.12
2022-09-12T02:04:33.499Z,34.06
2022-09-12T02:04:58.774Z,34.06
2022-09-12T02:05:28.808Z,34.04
2022-09-12T02:05:58.842Z,34.04
2022-09-12T02:06:28.873Z,34.12
2022-09-12T02:06:58.908Z,34.03
2022-09-12T02:07:28.949Z,34.03
2022-09-12T02:07:58.994Z,34.07
2022-09-12T02:08:29.014Z,34.06
2022-09-12T02:08:59.161Z,34.04
2022-09-12T02:09:29.147Z,34.06
2022-09-12T02:09:59.265Z,34.04
2022-09-12T02:10:32.558Z,34.06
2022-09-12T02:10:59.380Z,34.09
2022-09-12T02:11:29.377Z,34.07
2022-09-12T02:11:59.369Z,34.03
2022-09-12T02:12:29.513Z,34.04
2022-09-12T02:12:59.500Z,34.06
2022-09-12T02:13:29.617Z,34.07
2022-09-12T02:13:59.727Z,34.06
2022-09-12T02:14:29.849Z,34.03
2022-09-12T02:14:59.967Z,34.04
2022-09-12T02:15:30.081Z,34.00
2022-09-12T02:16:00.218Z,34.06
2022-09-12T02:16:30.411Z,34.07
2022-09-12T02:17:00.388Z,34.06
2022-09-12T02:17:30.519Z,34.01
2022-09-12T02:18:00.514Z,34.04
2022-09-12T02:18:30.529Z,34.04
2022-09-12T02:19:00.553Z,34.04
2022-09-12T02:19:30.585Z,34.05
2022-09-12T02:20:00.616Z,34.01
2022-09-12T02:20:47.359Z,34.00
2022-09-12T02:21:00.689Z,34.04
2022-09-12T02:21:30.723Z,34.03
2022-09-12T02:22:00.749Z,34.01
2022-09-12T02:22:30.793Z,34.05
2022-09-12T02:23:00.824Z,34.04
2022-09-12T02:23:30.850Z,33.98
2022-09-12T02:24:00.883Z,34.03
2022-09-12T02:24:30.918Z,34.01
2022-09-12T02:25:00.948Z,34.03
2022-09-12T02:25:30.985Z,34.04
2022-09-12T02:26:01.012Z,34.03
2022-09-12T02:26:31.047Z,34.06
2022-09-12T02:27:01.073Z,34.09
2022-09-12T02:27:31.115Z,34.03
2022-09-12T02:28:01.140Z,34.12
2022-09-12T02:28:31.172Z,34.05
2022-09-12T02:29:01.202Z,34.05
2022-09-12T02:29:31.237Z,34.05
2022-09-12T02:30:01.287Z,34.03
2022-09-12T02:30:31.353Z,34.03
2022-09-12T02:31:01.475Z,34.07
2022-09-12T02:31:31.510Z,34.10
2022-09-12T02:32:01.513Z,34.03
2022-09-12T02:32:31.552Z,34.01
2022-09-12T02:33:01.588Z,34.05
2022-09-12T02:33:31.619Z,34.02
2022-09-12T02:34:01.647Z,34.01
2022-09-12T02:34:31.677Z,34.01
2022-09-12T02:35:01.715Z,34.04
2022-09-12T02:35:31.743Z,34.04
2022-09-12T02:36:01.775Z,34.03
2022-09-12T02:36:31.808Z,34.07
2022-09-12T02:37:01.842Z,33.99
2022-09-12T02:37:31.890Z,34.01
2022-09-12T02:38:01.922Z,34.04
2022-09-12T02:38:31.959Z,34.05
2022-09-12T02:39:01.992Z,34.03
2022-09-12T02:39:32.021Z,34.05
2022-09-12T02:40:02.129Z,34.07
2022-09-12T02:40:32.177Z,34.02
2022-09-12T02:41:02.197Z,34.03
2022-09-12T02:41:32.235Z,33.99
2022-09-12T02:42:02.263Z,33.98
2022-09-12T02:42:32.316Z,34.05
2022-09-12T02:43:02.356Z,33.98
2022-09-12T02:43:32.385Z,34.03
2022-09-12T02:44:02.413Z,33.99
2022-09-12T02:44:32.447Z,34.01
2022-09-12T02:45:02.476Z,34.01
2022-09-12T02:45:32.553Z,34.05
2022-09-12T02:46:02.653Z,33.99
2022-09-12T02:46:32.658Z,33.93
2022-09-12T02:47:02.716Z,33.94
2022-09-12T02:47:32.750Z,34.01
2022-09-12T02:48:02.781Z,33.99
2022-09-12T02:48:32.815Z,33.93
2022-09-12T02:49:02.845Z,33.94
2022-09-12T02:49:32.873Z,33.95
2022-09-12T02:50:02.902Z,33.96
2022-09-12T02:50:32.935Z,33.94
2022-09-12T02:51:02.964Z,33.96
2022-09-12T02:51:32.996Z,33.96
2022-09-12T02:52:03.027Z,34.04
2022-09-12T02:52:33.064Z,34.01
2022-09-12T02:53:03.090Z,34.04
2022-09-12T02:53:33.124Z,34.02
2022-09-12T02:54:03.157Z,33.98
2022-09-12T02:54:33.210Z,33.98
2022-09-12T02:55:03.246Z,33.98
2022-09-12T02:55:33.276Z,33.94
2022-09-12T02:56:03.316Z,34.03
2022-09-12T02:56:33.345Z,33.98
2022-09-12T02:57:03.375Z,34.01
2022-09-12T02:57:33.406Z,33.98
2022-09-12T02:58:03.444Z,34.03
2022-09-12T02:58:33.472Z,33.98
2022-09-12T02:59:03.505Z,34.02
2022-09-12T02:59:33.558Z,33.97
2022-09-12T03:00:03.593Z,34.01
2022-09-12T03:00:33.621Z,34.02
2022-09-12T03:01:03.707Z,33.99
2022-09-12T03:01:33.753Z,34.00
2022-09-12T03:02:03.868Z,33.96
2022-09-12T03:02:33.933Z,33.88
2022-09-12T03:03:03.947Z,33.96
2022-09-12T03:03:33.980Z,33.99
2022-09-12T03:04:04.011Z,33.96
2022-09-12T03:04:34.038Z,33.94
2022-09-12T03:05:04.081Z,33.96
2022-09-12T03:05:34.109Z,33.96
2022-09-12T03:06:04.149Z,33.89
2022-09-12T03:06:34.176Z,33.98
2022-09-12T03:07:04.207Z,33.94
2022-09-12T03:07:34.239Z,33.93
2022-09-12T03:08:04.276Z,33.96
2022-09-12T03:08:34.377Z,33.94
2022-09-12T03:09:04.366Z,33.93
2022-09-12T03:09:34.366Z,33.94
2022-09-12T03:10:04.479Z,33.89
2022-09-12T03:10:34.596Z,33.94
2022-09-12T03:11:04.599Z,33.96
2022-09-12T03:11:34.707Z,33.96
2022-09-12T03:12:04.707Z,33.94
2022-09-12T03:12:34.703Z,33.96
2022-09-12T03:13:04.822Z,33.97
2022-09-12T03:13:34.938Z,33.96
2022-09-12T03:14:04.942Z,33.94
2022-09-12T03:14:35.057Z,33.94
2022-09-12T03:15:05.169Z,33.99
2022-09-12T03:15:35.167Z,33.93
2022-09-12T03:16:05.197Z,33.94
2022-09-12T03:16:35.238Z,33.93
2022-09-12T03:17:05.241Z,33.94
2022-09-12T03:17:35.384Z,33.98
2022-09-12T03:18:05.354Z,33.88
2022-09-12T03:18:35.439Z,33.91
2022-09-12T03:19:05.458Z,33.90
2022-09-12T03:19:35.486Z,33.91
2022-09-12T03:20:05.524Z,33.96
2022-09-12T03:20:35.555Z,33.91
2022-09-12T03:21:05.589Z,33.91
2022-09-12T03:21:35.620Z,33.91
2022-09-12T03:22:05.665Z,33.89
2022-09-12T03:22:35.690Z,33.89
2022-09-12T03:23:05.745Z,33.96
2022-09-12T03:23:35.750Z,33.85
2022-09-12T03:24:05.777Z,33.89
2022-09-12T03:24:35.812Z,33.94
2022-09-12T03:25:05.840Z,33.97
2022-09-12T03:25:35.875Z,33.89
2022-09-12T03:26:05.910Z,33.91
2022-09-12T03:26:35.934Z,33.91
2022-09-12T03:27:05.968Z,33.91
2022-09-12T03:27:36.002Z,33.88
2022-09-12T03:28:06.038Z,33.91
2022-09-12T03:28:36.076Z,33.87
2022-09-12T03:29:06.112Z,33.89
2022-09-12T03:29:36.218Z,33.97
2022-09-12T03:30:06.217Z,33.96
2022-09-12T03:30:36.276Z,34.05
2022-09-12T03:31:06.336Z,33.98
2022-09-12T03:31:36.324Z,34.02
2022-09-12T03:32:06.357Z,34.12
2022-09-12T03:32:36.387Z,34.31
2022-09-12T03:33:06.444Z,34.28
2022-09-12T03:33:36.448Z,34.28
2022-09-12T03:34:06.471Z,34.36
2022-09-12T03:34:36.502Z,34.28
2022-09-12T03:35:06.552Z,34.32
2022-09-12T03:35:36.579Z,34.24
2022-09-12T03:36:06.609Z,34.18
2022-09-12T03:36:36.639Z,34.30
2022-09-12T03:37:06.662Z,34.43
2022-09-12T03:37:36.694Z,34.43
2022-09-12T03:38:06.725Z,34.50
2022-09-12T03:38:36.750Z,34.47
2022-09-12T03:39:06.784Z,34.48
2022-09-12T03:39:36.812Z,34.39
2022-09-12T03:40:06.905Z,34.32
2022-09-12T03:40:36.929Z,34.30
2022-09-12T03:41:06.961Z,34.29
2022-09-12T03:41:36.989Z,34.29
2022-09-12T03:42:07.025Z,34.29
2022-09-12T03:42:37.065Z,34.27
2022-09-12T03:43:07.088Z,34.25
2022-09-12T03:43:37.123Z,34.27
2022-09-12T03:44:07.151Z,34.26
2022-09-12T03:44:37.182Z,34.18
2022-09-12T03:45:07.214Z,34.26
2022-09-12T03:45:37.297Z,34.32
2022-09-12T03:46:07.374Z,34.40
2022-09-12T03:46:37.406Z,34.42
2022-09-12T03:47:11.137Z,34.43
2022-09-12T03:47:37.529Z,34.34
2022-09-12T03:48:07.553Z,34.43
2022-09-12T03:48:37.607Z,34.51
2022-09-12T03:49:07.611Z,34.47
2022-09-12T03:49:37.647Z,34.49
2022-09-12T03:50:07.683Z,34.48
2022-09-12T03:50:37.710Z,34.51
2022-09-12T03:51:07.753Z,34.57
2022-09-12T03:51:37.775Z,34.59
2022-09-12T03:52:07.805Z,34.59
2022-09-12T03:52:37.840Z,34.70
2022-09-12T03:53:07.865Z,34.69
2022-09-12T03:53:37.898Z,34.73
2022-09-12T03:54:07.924Z,34.80
2022-09-12T03:54:37.953Z,34.84
2022-09-12T03:55:07.983Z,34.85
2022-09-12T03:55:38.019Z,34.84
2022-09-12T03:56:08.044Z,34.85
2022-09-12T03:56:38.080Z,34.85
2022-09-12T03:57:08.112Z,34.77
2022-09-12T03:57:38.147Z,34.81
2022-09-12T03:58:08.183Z,34.81
2022-09-12T03:58:38.218Z,34.77
2022-09-12T03:59:08.241Z,34.84
2022-09-12T03:59:38.272Z,34.76
2022-09-12T04:00:08.307Z,34.76
2022-09-12T04:00:38.334Z,34.77
2022-09-12T04:01:08.421Z,34.70
2022-09-12T04:01:38.459Z,34.62
2022-09-12T04:02:08.516Z,34.58
2022-09-12T04:02:38.560Z,34.64
2022-09-12T04:03:08.596Z,34.71
2022-09-12T04:03:38.627Z,34.65
2022-09-12T04:04:08.680Z,34.61
2022-09-12T04:04:38.695Z,34.60
2022-09-12T04:05:08.721Z,34.68
2022-09-12T04:05:38.752Z,34.66
2022-09-12T04:06:08.784Z,34.69
2022-09-12T04:06:38.820Z,34.64
2022-09-12T04:07:08.857Z,34.54
2022-09-12T04:07:38.891Z,34.50
2022-09-12T04:08:08.919Z,34.53
2022-09-12T04:08:38.921Z,34.51
2022-09-12T04:09:09.040Z,34.56
2022-09-12T04:09:39.159Z,34.53
2022-09-12T04:10:11.939Z,34.56
2022-09-12T04:10:39.158Z,34.57
2022-09-12T04:11:09.271Z,34.37
2022-09-12T04:11:39.389Z,34.33
2022-09-12T04:12:09.507Z,34.37
2022-09-12T04:12:39.656Z,34.42
2022-09-12T04:13:09.620Z,34.35
2022-09-12T04:13:39.621Z,34.31
2022-09-12T04:14:09.612Z,34.38
2022-09-12T04:14:39.614Z,34.46
2022-09-12T04:15:09.732Z,34.40
2022-09-12T04:15:39.856Z,34.33
2022-09-12T04:16:09.873Z,34.36
2022-09-12T04:16:39.952Z,34.39
2022-09-12T04:17:09.979Z,34.24
2022-09-12T04:17:39.966Z,34.24
2022-09-12T04:18:10.086Z,34.18
2022-09-12T04:18:40.108Z,34.18
2022-09-12T04:19:10.135Z,34.16
2022-09-12T04:19:40.190Z,34.06
2022-09-12T04:20:10.203Z,34.00
2022-09-12T04:20:40.235Z,33.90
2022-09-12T04:21:10.268Z,33.91
2022-09-12T04:21:40.298Z,33.86
2022-09-12T04:22:10.330Z,33.83
2022-09-12T04:22:40.362Z,33.80
2022-09-12T04:23:10.392Z,33.74
2022-09-12T04:23:40.417Z,33.76
2022-09-12T04:24:10.456Z,33.70
2022-09-12T04:24:40.485Z,33.70
2022-09-12T04:25:10.516Z,33.62
2022-09-12T04:25:40.544Z,33.67
2022-09-12T04:26:10.580Z,33.73
2022-09-12T04:26:40.604Z,33.69
2022-09-12T04:27:10.636Z,33.66
2022-09-12T04:27:40.670Z,33.64
2022-09-12T04:28:10.705Z,33.62
2022-09-12T04:28:40.745Z,33.61
2022-09-12T04:29:10.788Z,33.60
2022-09-12T04:29:40.823Z,33.66
2022-09-12T04:30:10.859Z,33.69
2022-09-12T04:30:40.946Z,33.75
2022-09-12T04:31:10.936Z,33.77
2022-09-12T04:31:40.968Z,33.74
2022-09-12T04:32:11.001Z,33.77
2022-09-12T04:32:41.035Z,33.77
2022-09-12T04:33:11.073Z,33.77
2022-09-12T04:33:41.097Z,33.75
2022-09-12T04:34:11.125Z,33.72
2022-09-12T04:34:41.154Z,33.97
2022-09-12T04:35:11.213Z,34.07
2022-09-12T04:35:41.217Z,34.16
2022-09-12T04:36:11.256Z,34.13
2022-09-12T04:36:41.299Z,34.10
2022-09-12T04:37:11.328Z,34.12
2022-09-12T04:37:41.363Z,34.25
2022-09-12T04:38:11.393Z,34.24
2022-09-12T04:38:41.450Z,34.31
2022-09-12T04:39:11.481Z,34.27
2022-09-12T04:39:41.554Z,34.23
2022-09-12T04:40:11.676Z,34.17
2022-09-12T04:40:41.591Z,34.16
2022-09-12T04:41:11.621Z,34.10
2022-09-12T04:41:41.664Z,34.21
2022-09-12T04:42:11.697Z,34.22
2022-09-12T04:42:41.725Z,34.19
2022-09-12T04:43:14.511Z,34.15
2022-09-12T04:43:41.848Z,34.28
2022-09-12T04:44:11.879Z,34.32
2022-09-12T04:44:41.909Z,34.38
2022-09-12T04:45:11.944Z,34.35
2022-09-12T04:45:42.024Z,34.35
2022-09-12T04:46:12.125Z,34.35
2022-09-12T04:46:42.036Z,34.30
2022-09-12T04:47:12.064Z,34.27
2022-09-12T04:47:42.101Z,34.28
2022-09-12T04:48:12.132Z,34.42
2022-09-12T04:48:42.304Z,34.42
2022-09-12T04:49:12.187Z,34.42
2022-09-12T04:49:42.221Z,34.32
2022-09-12T04:50:12.253Z,34.35
2022-09-12T04:50:42.415Z,34.47
2022-09-12T04:51:12.304Z,34.47
2022-09-12T04:51:42.334Z,34.55
2022-09-12T04:52:12.364Z,34.52
2022-09-12T04:52:42.399Z,34.52
2022-09-12T04:53:12.432Z,34.61
2022-09-12T04:53:42.463Z,34.56
2022-09-12T04:54:12.494Z,34.59
2022-09-12T04:54:42.527Z,34.56
2022-09-12T04:55:12.561Z,34.53
2022-09-12T04:55:42.593Z,34.59
2022-09-12T04:56:12.619Z,34.60
2022-09-12T04:56:42.648Z,34.62
2022-09-12T04:57:12.681Z,34.60
2022-09-12T04:57:42.706Z,34.63
2022-09-12T04:58:12.741Z,34.59
2022-09-12T04:58:42.822Z,34.61
2022-09-12T04:59:12.819Z,34.60
2022-09-12T04:59:42.851Z,34.62
2022-09-12T05:00:12.886Z,34.61
2022-09-12T05:00:42.911Z,34.49
2022-09-12T05:01:13.036Z,34.54
2022-09-12T05:01:43.052Z,34.56
2022-09-12T05:02:13.114Z,34.57
2022-09-12T05:02:43.132Z,34.50
2022-09-12T05:03:13.160Z,34.53
2022-09-12T05:03:43.190Z,34.51
2022-09-12T05:04:13.229Z,34.56
2022-09-12T05:04:43.258Z,34.53
2022-09-12T05:05:13.295Z,34.54
2022-09-12T05:05:43.322Z,34.56
2022-09-12T05:06:13.377Z,34.46
2022-09-12T05:06:43.384Z,34.50
2022-09-12T05:07:13.417Z,34.49
2022-09-12T05:07:43.448Z,34.53
2022-09-12T05:08:13.478Z,34.54
2022-09-12T05:08:43.483Z,34.57
2022-09-12T05:09:13.468Z,34.60
2022-09-12T05:09:43.465Z,34.61
2022-09-12T05:10:13.587Z,34.64
2022-09-12T05:10:43.581Z,34.65
2022-09-12T05:11:13.580Z,34.69
2022-09-12T05:12:03.898Z,34.77
2022-09-12T05:12:13.607Z,34.81
2022-09-12T05:12:43.601Z,34.73
2022-09-12T05:13:13.606Z,34.76
2022-09-12T05:13:43.721Z,34.81
2022-09-12T05:14:13.838Z,34.86
2022-09-12T05:14:43.839Z,34.84
2022-09-12T05:15:13.948Z,34.89
2022-09-12T05:15:43.944Z,34.93
2022-09-12T05:16:13.995Z,34.90
2022-09-12T05:16:48.571Z,34.89
2022-09-12T05:17:13.979Z,34.89
2022-09-12T05:17:44.112Z,34.82
2022-09-12T05:18:14.099Z,34.81
2022-09-12T05:18:44.145Z,34.84
2022-09-12T05:19:14.165Z,34.85
2022-09-12T05:19:44.193Z,34.84
2022-09-12T05:20:14.221Z,34.86
2022-09-12T05:20:44.252Z,34.85
2022-09-12T05:21:14.279Z,34.84
2022-09-12T05:21:44.339Z,34.84
2022-09-12T05:22:14.349Z,34.85
2022-09-12T05:22:44.377Z,34.89
2022-09-12T05:23:14.413Z,34.86
2022-09-12T05:23:44.441Z,34.90
2022-09-12T05:24:14.464Z,34.89
2022-09-12T05:24:49.836Z,34.91
2022-09-12T05:25:14.549Z,34.84
2022-09-12T05:25:44.580Z,34.84
2022-09-12T05:26:14.612Z,34.90
2022-09-12T05:26:44.646Z,34.89
2022-09-12T05:27:14.671Z,34.89
2022-09-12T05:27:49.936Z,34.86
2022-09-12T05:28:14.772Z,34.92
2022-09-12T05:28:44.801Z,34.91
2022-09-12T05:29:14.834Z,34.92
2022-09-12T05:29:44.869Z,34.99
2022-09-12T05:30:14.900Z,34.91
2022-09-12T05:30:44.946Z,34.93
2022-09-12T05:31:14.980Z,34.92
2022-09-12T05:31:45.005Z,34.89
2022-09-12T05:32:15.048Z,34.93
2022-09-12T05:32:45.093Z,35.00
2022-09-12T05:33:15.127Z,34.96
2022-09-12T05:33:45.153Z,34.97
2022-09-12T05:34:15.186Z,35.00
2022-09-12T05:34:45.213Z,35.05
2022-09-12T05:35:15.245Z,35.07
2022-09-12T05:35:45.283Z,35.12
2022-09-12T05:36:15.316Z,35.06
2022-09-12T05:36:45.349Z,35.05
2022-09-12T05:37:15.407Z,35.01
2022-09-12T05:37:45.417Z,35.09
2022-09-12T05:38:15.448Z,35.05
2022-09-12T05:38:45.594Z,35.04
2022-09-12T05:39:15.537Z,35.08
2022-09-12T05:39:45.611Z,35.05
2022-09-12T05:40:15.651Z,35.08
2022-09-12T05:40:45.658Z,35.19
2022-09-12T05:41:18.954Z,35.14
2022-09-12T05:41:45.740Z,35.20
2022-09-12T05:42:15.770Z,35.13
2022-09-12T05:42:45.803Z,35.18
2022-09-12T05:43:15.839Z,35.20
2022-09-12T05:43:45.868Z,35.28
2022-09-12T05:44:15.921Z,35.29
2022-09-12T05:44:45.973Z,35.26
2022-09-12T05:45:16.007Z,35.26
2022-09-12T05:45:46.096Z,35.30
2022-09-12T05:46:16.110Z,35.34
2022-09-12T05:46:46.143Z,35.33
2022-09-12T05:47:16.175Z,35.22
2022-09-12T05:47:46.207Z,35.26
2022-09-12T05:48:16.241Z,35.25
2022-09-12T05:48:46.364Z,35.22
2022-09-12T05:49:16.325Z,35.24
2022-09-12T05:49:46.366Z,35.39
2022-09-12T05:50:16.394Z,35.38
2022-09-12T05:50:46.422Z,35.39
2022-09-12T05:51:16.466Z,35.43
2022-09-12T05:51:46.488Z,35.43
2022-09-12T05:52:16.518Z,35.39
2022-09-12T05:52:46.583Z,35.43
2022-09-12T05:53:16.595Z,35.42
2022-09-12T05:53:46.622Z,35.47
2022-09-12T05:54:16.660Z,35.47
2022-09-12T05:54:46.689Z,35.48
2022-09-12T05:55:16.721Z,35.52
2022-09-12T05:55:46.754Z,35.51
2022-09-12T05:56:16.782Z,35.52
2022-09-12T05:56:46.815Z,35.51
2022-09-12T05:57:16.855Z,35.47
2022-09-12T05:57:46.892Z,35.46
2022-09-12T05:58:16.928Z,35.47
2022-09-12T05:58:47.113Z,35.48
2022-09-12T05:59:17.031Z,35.49
2022-09-12T05:59:47.059Z,35.51
2022-09-12T06:00:17.091Z,35.48
2022-09-12T06:00:47.118Z,35.41
2022-09-12T06:01:17.187Z,35.40
2022-09-12T06:01:47.283Z,35.42
2022-09-12T06:02:17.243Z,35.55
2022-09-12T06:02:47.280Z,35.48
2022-09-12T06:03:17.313Z,35.51
2022-09-12T06:03:47.344Z,35.51
2022-09-12T06:04:17.382Z,35.34
2022-09-12T06:04:47.404Z,35.38
2022-09-12T06:05:17.437Z,35.36
2022-09-12T06:05:50.562Z,35.43
2022-09-12T06:06:17.474Z,35.43
2022-09-12T06:06:47.507Z,35.40
2022-09-12T06:07:17.540Z,35.36
2022-09-12T06:07:47.583Z,35.27
2022-09-12T06:08:17.635Z,35.31
2022-09-12T06:08:47.867Z,35.31
2022-09-12T06:09:17.741Z,35.24
2022-09-12T06:09:47.733Z,35.23
2022-09-12T06:10:17.850Z,35.30
2022-09-12T06:10:47.966Z,35.36
2022-09-12T06:11:18.086Z,35.34
2022-09-12T06:11:48.077Z,35.42
2022-09-12T06:12:18.194Z,35.41
2022-09-12T06:12:48.197Z,35.42
2022-09-12T06:13:18.191Z,35.32
2022-09-12T06:13:48.305Z,35.31
2022-09-12T06:14:18.421Z,35.38
2022-09-12T06:14:48.413Z,35.42
2022-09-12T06:15:18.531Z,35.46
2022-09-12T06:15:48.523Z,35.51
2022-09-12T06:16:18.675Z,35.48
2022-09-12T06:16:48.840Z,35.42
2022-09-12T06:17:18.727Z,35.38
2022-09-12T06:17:51.370Z,35.33
2022-09-12T06:18:18.735Z,35.19
2022-09-12T06:18:48.766Z,35.24
2022-09-12T06:19:18.807Z,35.18
2022-09-12T06:19:48.835Z,35.19
2022-09-12T06:20:18.864Z,35.19
2022-09-12T06:20:48.894Z,35.20
2022-09-12T06:21:18.929Z,35.15
2022-09-12T06:21:48.957Z,35.14
2022-09-12T06:22:18.992Z,35.13
2022-09-12T06:22:49.043Z,35.10
2022-09-12T06:23:19.076Z,34.97
2022-09-12T06:23:49.134Z,34.97
2022-09-12T06:24:19.142Z,34.97
2022-09-12T06:24:49.177Z,34.97
2022-09-12T06:25:19.209Z,35.05
2022-09-12T06:25:49.240Z,34.95
2022-09-12T06:26:19.273Z,34.95
2022-09-12T06:26:49.319Z,34.93